メインページ
METAR-TAF:

METAR-TAF

空港 :

庄内空港

庄内, 日本

緯度: 38-49N, 経度: 139-47E, 海抜: 22m

現時点の気象観測

当レポートは32分前の08:00(UTC)に作成
変向風 3kt
気温 3°C
湿度 81%
気圧 1019 hPa
視程10km以上
高度2000ftの雲はほとんどない
高度3000ftの雲は散在している
高度5000ftの千切れ雲あり

METAR: RJSY 130800Z VRB03KT 9999 FEW020 SCT030 BKN050 03/00 Q1019

時間: 17:32 (08:32 UTC)


TAF: 見つかりません

4,000以上の空港の気象観測と天気予報(METAR報とTAF報)

利用可能な観測所は地図上に黄色い丸と赤い丸で示す。

丸の上にカーソルを重ねると観測所名を参照できる。

次にクリックすると気象観測と天気予報を参照できる。

マップの切り替え:黒色「×」印の緑ボタンをクリックして拡大、「-」印の緑ボタンをクリックして縮小、緑色の三角印をクリックして隣りの地図に切り替え


METAR-TAF: